LKRO weather

Roudnice Airport
Roudnice nad Labem, Ústí nad Labem Region, Czechia

Public forecast

Using degrees Celsius for public forecast. Weather courtesy of forecast.io.

METAR (pilot weather report)

Report is more than 6 hours old.

Closest report is Vodochody Airport, 13.3 nm (24.7 km) SSE. Retrieved 2019/09/22 11:00 UTC (11 hours ago):

LKVO 221100Z 10010KT CAVOK 19/05 Q1015

TAF (pilot weather forecast)

Closest forecast is Václav Havel Airport Prague, 18.6 nm (34.5 km) S. Retrieved 2019/09/22 18:02 UTC (4 hours ago):

TAF LKPR 221700Z 2218/2400 12007KT CAVOK BECMG 2300/2302 VRB02KT BECMG 2312/2314 9999 BKN040